Terminal Aerodrome Forecast
Issued by NWS Sioux Falls, SD

Home | Current Version | Previous Version | Text Only | Print | Product List | Glossary On
Versions: 1 2 3 4 5 6 7 8 9 10 11 12 13 14 15 16 17 18 19 20 21 22 23 24 25 26 27 28 29 30 31 32 33 34 35 36 37 38 39 40 41 42 43
000
FTUS43 KFSD 021140
TAFSUX
TAF
KSUX 021140Z 0212/0312 32011KT P6SM SCT025 OVC090
      TEMPO 0212/0214 -SHRA OVC050
     FM021400 33008KT P6SM -SHRA SCT020 OVC050
      TEMPO 0215/0218 4SM -SHRA OVC022
     FM021900 34013G18KT P6SM SCT020 BKN100
     FM022200 32012KT P6SM SCT030
     FM030000 29005KT P6SM FEW060
     FM030700 33022G36KT P6SM BKN060
     FM031000 32017G28KT P6SM SCT040=

USA.gov is the U.S. government's official web portal to all federal, state and local government web resources and services.